createdAt,value
2022-08-30T00:02:21.045Z,15.68
2022-08-30T00:04:49.187Z,15.57
2022-08-30T00:07:17.196Z,15.48
2022-08-30T00:09:45.031Z,15.42
2022-08-30T00:12:12.950Z,15.40
2022-08-30T00:14:41.077Z,15.37
2022-08-30T00:17:08.809Z,15.32
2022-08-30T00:19:37.289Z,15.39
2022-08-30T00:22:07.225Z,15.37
2022-08-30T00:24:35.247Z,15.31
2022-08-30T00:27:03.177Z,15.31
2022-08-30T00:29:31.161Z,15.29
2022-08-30T00:31:58.868Z,15.32
2022-08-30T00:34:26.901Z,15.30
2022-08-30T00:36:54.706Z,15.50
2022-08-30T00:39:22.438Z,15.86
2022-08-30T00:41:50.437Z,15.67
2022-08-30T00:44:18.694Z,15.56
2022-08-30T00:46:46.462Z,15.52
2022-08-30T00:49:15.103Z,15.45
2022-08-30T00:51:43.514Z,15.40
2022-08-30T00:54:12.271Z,15.35
2022-08-30T00:56:40.393Z,15.26
2022-08-30T00:59:10.370Z,15.22
2022-08-30T01:01:38.655Z,15.22
2022-08-30T01:04:08.920Z,15.24
2022-08-30T01:06:39.495Z,15.27
2022-08-30T01:09:09.132Z,15.22
2022-08-30T01:11:38.156Z,15.20
2022-08-30T01:14:06.881Z,15.29
2022-08-30T01:16:36.130Z,15.28
2022-08-30T01:19:06.870Z,15.27
2022-08-30T01:21:34.971Z,15.38
2022-08-30T01:24:05.059Z,15.41
2022-08-30T01:26:35.040Z,15.47
2022-08-30T01:29:10.449Z,15.44
2022-08-30T01:31:38.426Z,15.54
2022-08-30T01:34:07.815Z,15.53
2022-08-30T01:36:37.822Z,15.55
2022-08-30T01:39:15.467Z,15.60
2022-08-30T01:41:43.720Z,15.70
2022-08-30T01:44:13.118Z,15.66
2022-08-30T01:46:46.252Z,15.51
2022-08-30T01:49:17.490Z,15.46
2022-08-30T01:51:51.009Z,15.39
2022-08-30T01:54:36.833Z,15.39
2022-08-30T01:57:09.928Z,15.35
2022-08-30T01:59:39.044Z,15.29
2022-08-30T02:02:08.420Z,15.30
2022-08-30T02:04:36.862Z,15.30
2022-08-30T02:07:05.683Z,15.34
2022-08-30T02:09:33.844Z,15.29
2022-08-30T02:12:01.666Z,15.26
2022-08-30T02:14:29.415Z,15.25
2022-08-30T02:16:57.413Z,15.26
2022-08-30T02:19:25.275Z,15.22
2022-08-30T02:21:53.022Z,15.18
2022-08-30T02:24:21.179Z,15.10
2022-08-30T02:26:49.485Z,15.06
2022-08-30T02:29:17.485Z,15.03
2022-08-30T02:31:45.909Z,15.09
2022-08-30T02:34:14.070Z,15.14
2022-08-30T02:36:42.343Z,15.14
2022-08-30T02:39:12.756Z,15.18
2022-08-30T02:41:41.725Z,15.25
2022-08-30T02:44:10.782Z,15.15
2022-08-30T02:46:38.916Z,15.13
2022-08-30T02:49:32.176Z,15.08
2022-08-30T02:51:56.730Z,14.96
2022-08-30T02:54:24.782Z,14.93
2022-08-30T02:56:52.682Z,14.90
2022-08-30T02:59:21.018Z,14.83
2022-08-30T03:01:49.152Z,14.82
2022-08-30T03:04:16.998Z,14.78
2022-08-30T03:06:45.732Z,14.75
2022-08-30T03:09:13.601Z,14.70
2022-08-30T03:11:42.722Z,14.71
2022-08-30T03:14:10.606Z,14.69
2022-08-30T03:16:38.383Z,14.65
2022-08-30T03:19:06.115Z,14.64
2022-08-30T03:21:36.261Z,14.59
2022-08-30T03:24:04.264Z,14.60
2022-08-30T03:26:31.946Z,14.57
2022-08-30T03:28:59.985Z,14.54
2022-08-30T03:31:27.704Z,14.48
2022-08-30T03:33:55.467Z,14.45
2022-08-30T03:36:23.458Z,14.43
2022-08-30T03:38:51.234Z,14.40
2022-08-30T03:41:19.076Z,14.40
2022-08-30T03:43:47.493Z,14.39
2022-08-30T03:46:16.049Z,14.36
2022-08-30T03:48:44.136Z,14.43
2022-08-30T03:51:12.018Z,14.47
2022-08-30T03:53:39.747Z,14.43
2022-08-30T03:56:07.584Z,14.46
2022-08-30T03:58:36.080Z,14.44
2022-08-30T04:01:04.063Z,14.42
2022-08-30T04:03:31.809Z,14.47
2022-08-30T04:06:00.656Z,14.62
2022-08-30T04:08:28.909Z,14.59
2022-08-30T04:10:56.732Z,14.58
2022-08-30T04:13:25.282Z,14.58
2022-08-30T04:15:53.110Z,14.58
2022-08-30T04:18:21.121Z,14.60
2022-08-30T04:20:51.276Z,14.65
2022-08-30T04:23:19.585Z,14.74
2022-08-30T04:25:47.409Z,14.78
2022-08-30T04:28:15.638Z,14.87
2022-08-30T04:30:44.541Z,14.91
2022-08-30T04:33:13.771Z,14.96
2022-08-30T04:35:46.604Z,15.10
2022-08-30T04:38:15.239Z,15.28
2022-08-30T04:40:45.352Z,15.49
2022-08-30T04:43:13.352Z,15.66
2022-08-30T04:45:42.800Z,15.86
2022-08-30T04:48:10.733Z,16.07
2022-08-30T04:50:38.545Z,16.25
2022-08-30T04:53:13.846Z,16.28
2022-08-30T04:55:43.426Z,16.30
2022-08-30T04:58:12.058Z,16.42
2022-08-30T05:00:43.005Z,16.41
2022-08-30T05:03:10.889Z,16.54
2022-08-30T05:05:41.885Z,16.45
2022-08-30T05:08:12.758Z,16.57
2022-08-30T05:10:46.129Z,16.67
2022-08-30T05:13:15.756Z,16.75
2022-08-30T05:15:44.436Z,16.82
2022-08-30T05:18:14.194Z,16.81
2022-08-30T05:20:43.539Z,16.85
2022-08-30T05:23:11.386Z,16.85
2022-08-30T05:25:41.375Z,16.96
2022-08-30T05:28:10.235Z,16.98
2022-08-30T05:30:38.477Z,17.02
2022-08-30T05:33:06.746Z,17.10
2022-08-30T05:35:34.844Z,17.23
2022-08-30T05:38:02.639Z,17.14
2022-08-30T05:40:30.653Z,17.42
2022-08-30T05:42:59.472Z,17.52
2022-08-30T05:45:27.221Z,17.63
2022-08-30T05:47:54.977Z,17.76
2022-08-30T05:50:23.384Z,17.76
2022-08-30T05:52:51.108Z,17.88
2022-08-30T05:55:21.927Z,18.11
2022-08-30T05:57:49.871Z,18.29
2022-08-30T06:00:19.065Z,18.46
2022-08-30T06:02:46.969Z,18.71
2022-08-30T06:05:15.061Z,18.88
2022-08-30T06:07:44.081Z,18.87
2022-08-30T06:10:12.570Z,19.02
2022-08-30T06:12:40.778Z,18.98
2022-08-30T06:15:09.363Z,19.19
2022-08-30T06:17:39.609Z,19.66
2022-08-30T06:20:09.714Z,19.69
2022-08-30T06:22:38.982Z,19.48
2022-08-30T06:25:07.366Z,19.69
2022-08-30T06:27:35.272Z,19.84
2022-08-30T06:30:03.737Z,19.98
2022-08-30T06:32:31.668Z,19.79
2022-08-30T06:34:59.524Z,19.81
2022-08-30T06:37:29.403Z,19.88
2022-08-30T06:39:59.632Z,20.27
2022-08-30T06:42:32.202Z,20.45
2022-08-30T06:45:01.926Z,20.64
2022-08-30T06:47:30.630Z,20.77
2022-08-30T06:49:58.952Z,20.95
2022-08-30T06:52:26.757Z,20.99
2022-08-30T06:54:58.391Z,21.28
2022-08-30T06:57:27.084Z,21.11
2022-08-30T06:59:58.785Z,21.24
2022-08-30T07:02:27.019Z,21.34
2022-08-30T07:04:54.904Z,21.50
2022-08-30T07:07:23.276Z,21.43
2022-08-30T07:09:51.388Z,21.20
2022-08-30T07:12:19.130Z,21.15
2022-08-30T07:14:46.957Z,21.28
2022-08-30T07:17:34.841Z,21.63
2022-08-30T07:20:04.889Z,21.43
2022-08-30T07:22:35.766Z,21.31
2022-08-30T07:25:03.938Z,21.18
2022-08-30T07:27:31.911Z,21.14
2022-08-30T07:30:01.165Z,20.91
2022-08-30T07:32:29.107Z,21.01
2022-08-30T07:34:56.852Z,21.00
2022-08-30T07:37:25.179Z,20.81
2022-08-30T07:39:53.200Z,20.79
2022-08-30T07:42:21.067Z,20.93
2022-08-30T07:44:49.070Z,21.02
2022-08-30T07:47:16.919Z,21.23
2022-08-30T07:49:44.693Z,21.66
2022-08-30T07:52:12.711Z,21.89
2022-08-30T07:54:40.527Z,21.80
2022-08-30T07:57:08.521Z,21.56
2022-08-30T07:59:36.555Z,21.47
2022-08-30T08:02:04.655Z,21.37
2022-08-30T08:04:33.267Z,21.43
2022-08-30T08:07:01.381Z,21.57
2022-08-30T08:09:29.287Z,21.54
2022-08-30T08:11:57.562Z,21.84
2022-08-30T08:14:25.951Z,21.89
2022-08-30T08:16:53.846Z,21.91
2022-08-30T08:19:21.781Z,21.88
2022-08-30T08:21:55.698Z,22.12
2022-08-30T08:24:37.206Z,22.63
2022-08-30T08:27:05.304Z,22.81
2022-08-30T08:29:33.139Z,22.51
2022-08-30T08:32:01.287Z,22.61
2022-08-30T08:34:29.203Z,22.53
2022-08-30T08:36:56.993Z,22.92
2022-08-30T08:39:24.889Z,23.08
2022-08-30T08:42:31.964Z,23.06
2022-08-30T08:45:12.957Z,23.13
2022-08-30T08:47:59.229Z,23.11
2022-08-30T08:50:30.159Z,22.98
2022-08-30T08:53:45.479Z,22.78
2022-08-30T08:56:16.876Z,22.61
2022-08-30T08:58:48.973Z,22.63
2022-08-30T09:01:20.483Z,22.52
2022-08-30T09:03:49.450Z,22.75
2022-08-30T09:06:28.946Z,23.02
2022-08-30T09:08:57.149Z,22.86
2022-08-30T09:11:28.593Z,22.76
2022-08-30T09:13:56.480Z,22.82
2022-08-30T09:16:56.816Z,22.59
2022-08-30T09:19:58.894Z,22.70
2022-08-30T09:22:38.006Z,23.01
2022-08-30T09:25:17.287Z,23.16
2022-08-30T09:27:47.875Z,23.37
2022-08-30T09:30:30.365Z,23.53
2022-08-30T09:33:01.750Z,23.58
2022-08-30T09:35:37.507Z,23.44
2022-08-30T09:38:08.437Z,23.14
2022-08-30T09:40:42.619Z,22.89
2022-08-30T09:43:16.352Z,22.95
2022-08-30T09:45:49.803Z,23.12
2022-08-30T09:48:34.391Z,23.69
2022-08-30T09:51:12.990Z,23.80
2022-08-30T09:54:07.261Z,24.12
2022-08-30T09:56:53.496Z,24.10
2022-08-30T09:59:42.497Z,23.93
2022-08-30T10:02:19.067Z,23.71
2022-08-30T10:04:46.966Z,23.53
2022-08-30T10:07:21.362Z,23.19
2022-08-30T10:10:29.044Z,23.42
2022-08-30T10:13:29.626Z,23.68
2022-08-30T10:16:22.489Z,23.96
2022-08-30T10:19:02.293Z,24.11
2022-08-30T10:21:50.129Z,24.17
2022-08-30T10:24:24.594Z,24.47
2022-08-30T10:26:55.466Z,24.13
2022-08-30T10:29:30.478Z,24.25
2022-08-30T10:32:51.381Z,24.37
2022-08-30T10:35:29.064Z,24.34
2022-08-30T10:38:10.568Z,24.17
2022-08-30T10:41:02.292Z,23.80
2022-08-30T10:43:52.675Z,23.36
2022-08-30T10:46:50.607Z,23.08
2022-08-30T10:49:22.491Z,22.76
2022-08-30T10:52:11.822Z,22.56
2022-08-30T10:54:47.204Z,22.31
2022-08-30T10:57:14.920Z,22.29
2022-08-30T10:59:50.534Z,22.28
2022-08-30T11:02:29.892Z,22.24
2022-08-30T11:05:12.376Z,22.42
2022-08-30T11:08:03.073Z,22.68
2022-08-30T11:10:42.462Z,23.09
2022-08-30T11:13:26.409Z,23.46
2022-08-30T11:16:15.419Z,23.24
2022-08-30T11:18:52.139Z,23.06
2022-08-30T11:21:23.477Z,22.88
2022-08-30T11:24:10.861Z,22.87
2022-08-30T11:27:00.126Z,22.84
2022-08-30T11:29:30.834Z,23.03
2022-08-30T11:32:17.324Z,23.20
2022-08-30T11:34:48.002Z,23.17
2022-08-30T11:37:35.960Z,23.34
2022-08-30T11:40:13.317Z,23.36
2022-08-30T11:42:49.318Z,23.40
2022-08-30T11:45:24.759Z,23.33
2022-08-30T11:48:00.842Z,23.38
2022-08-30T11:50:53.977Z,23.47
2022-08-30T11:53:38.207Z,23.63
2022-08-30T11:56:35.054Z,23.86
2022-08-30T11:59:26.767Z,24.14
2022-08-30T12:01:55.822Z,24.14
2022-08-30T12:04:43.155Z,24.14
2022-08-30T12:07:12.660Z,24.10
2022-08-30T12:09:46.794Z,24.15
2022-08-30T12:12:26.768Z,24.10
2022-08-30T12:14:57.616Z,24.45
2022-08-30T12:17:47.017Z,24.64
2022-08-30T12:20:26.021Z,24.57
2022-08-30T12:22:55.661Z,24.40
2022-08-30T12:25:34.085Z,24.60
2022-08-30T12:28:12.083Z,24.57
2022-08-30T12:30:41.054Z,24.77
2022-08-30T12:33:12.711Z,24.70
2022-08-30T12:35:43.919Z,24.77
2022-08-30T12:38:27.658Z,24.95
2022-08-30T12:41:00.350Z,24.83
2022-08-30T12:43:40.195Z,25.01
2022-08-30T12:46:15.339Z,24.92
2022-08-30T12:48:45.063Z,24.99
2022-08-30T12:51:38.956Z,24.79
2022-08-30T12:54:16.097Z,24.73
2022-08-30T12:57:19.313Z,24.68
2022-08-30T12:59:59.325Z,24.65
2022-08-30T13:02:53.131Z,24.75
2022-08-30T13:05:41.683Z,25.05
2022-08-30T13:08:18.792Z,24.98
2022-08-30T13:11:01.538Z,25.12
2022-08-30T13:13:51.956Z,24.97
2022-08-30T13:16:35.437Z,25.14
2022-08-30T13:19:33.612Z,25.06
2022-08-30T13:22:02.322Z,24.97
2022-08-30T13:24:30.933Z,24.63
2022-08-30T13:27:11.853Z,24.26
2022-08-30T13:29:40.546Z,23.94
2022-08-30T13:32:10.109Z,23.42
2022-08-30T13:34:38.893Z,22.91
2022-08-30T13:37:44.297Z,22.78
2022-08-30T13:39:55.749Z,22.60
2022-08-30T13:42:39.055Z,22.67
2022-08-30T13:45:40.975Z,22.69
2022-08-30T13:47:56.007Z,22.79
2022-08-30T13:50:23.956Z,22.69
2022-08-30T13:52:55.162Z,22.77
2022-08-30T13:55:23.077Z,22.72
2022-08-30T13:57:55.201Z,22.44
2022-08-30T14:00:25.357Z,22.28
2022-08-30T14:02:57.544Z,22.40
2022-08-30T14:05:48.700Z,22.45
2022-08-30T14:11:18.394Z,22.45
2022-08-30T14:16:37.132Z,22.44
2022-08-30T14:19:06.333Z,22.40
2022-08-30T14:21:36.257Z,22.42
2022-08-30T14:24:06.552Z,22.47
2022-08-30T14:26:40.720Z,22.60
2022-08-30T14:29:11.209Z,22.71
2022-08-30T14:31:40.350Z,22.69
2022-08-30T14:34:10.951Z,22.85
2022-08-30T14:36:42.541Z,22.67
2022-08-30T14:39:14.725Z,22.72
2022-08-30T14:41:45.889Z,22.81
2022-08-30T14:44:15.658Z,23.27
2022-08-30T14:46:44.453Z,23.52
2022-08-30T14:49:13.918Z,23.78
2022-08-30T14:51:42.582Z,23.50
2022-08-30T14:54:10.885Z,23.43
2022-08-30T14:56:45.102Z,23.30
2022-08-30T14:59:13.426Z,23.41
2022-08-30T15:01:42.105Z,23.16
2022-08-30T15:04:10.813Z,22.72
2022-08-30T15:06:40.553Z,22.54
2022-08-30T15:09:11.193Z,22.44
2022-08-30T15:11:39.979Z,21.99
2022-08-30T15:14:08.888Z,21.56
2022-08-30T15:16:39.774Z,21.36
2022-08-30T15:19:10.681Z,21.21
2022-08-30T15:21:46.471Z,21.20
2022-08-30T15:24:19.833Z,20.85
2022-08-30T15:26:55.484Z,20.85
2022-08-30T15:29:24.526Z,20.93
2022-08-30T15:31:52.649Z,20.74
2022-08-30T15:34:28.120Z,20.68
2022-08-30T15:36:57.265Z,20.47
2022-08-30T15:39:25.973Z,20.26
2022-08-30T15:41:58.429Z,20.00
2022-08-30T15:44:32.524Z,20.13
2022-08-30T15:47:03.966Z,20.07
2022-08-30T15:49:32.275Z,20.11
2022-08-30T15:52:02.445Z,20.17
2022-08-30T15:54:30.962Z,19.99
2022-08-30T15:56:59.576Z,20.03
2022-08-30T15:59:29.367Z,20.14
2022-08-30T16:01:58.115Z,20.13
2022-08-30T16:04:26.237Z,20.16
2022-08-30T16:06:54.441Z,20.18
2022-08-30T16:09:23.154Z,20.23
2022-08-30T16:11:51.188Z,20.19
2022-08-30T16:14:19.074Z,20.17
2022-08-30T16:16:46.793Z,20.13
2022-08-30T16:19:14.751Z,20.15
2022-08-30T16:21:44.076Z,20.16
2022-08-30T16:24:14.086Z,20.20
2022-08-30T16:26:43.700Z,20.13
2022-08-30T16:29:13.204Z,20.12
2022-08-30T16:31:44.296Z,20.14
2022-08-30T16:34:15.088Z,20.07
2022-08-30T16:36:43.740Z,19.94
2022-08-30T16:39:13.554Z,19.85
2022-08-30T16:41:44.344Z,19.83
2022-08-30T16:44:13.573Z,19.78
2022-08-30T16:46:44.038Z,19.65
2022-08-30T16:49:23.178Z,19.69
2022-08-30T16:51:53.492Z,19.64
2022-08-30T16:54:21.297Z,19.56
2022-08-30T16:56:49.160Z,19.58
2022-08-30T16:59:17.743Z,19.59
2022-08-30T17:01:48.134Z,19.45
2022-08-30T17:04:19.298Z,19.39
2022-08-30T17:06:49.690Z,19.34
2022-08-30T17:09:19.183Z,19.27
2022-08-30T17:11:47.846Z,19.35
2022-08-30T17:14:21.550Z,19.29
2022-08-30T17:16:56.263Z,19.22
2022-08-30T17:19:27.257Z,19.11
2022-08-30T17:21:58.074Z,19.15
2022-08-30T17:24:27.170Z,19.20
2022-08-30T17:26:55.413Z,19.21
2022-08-30T17:29:23.310Z,19.17
2022-08-30T17:31:51.709Z,19.05
2022-08-30T17:34:21.995Z,19.17
2022-08-30T17:36:51.497Z,19.07
2022-08-30T17:39:19.676Z,19.09
2022-08-30T17:41:50.517Z,19.03
2022-08-30T17:44:29.032Z,19.04
2022-08-30T17:46:59.561Z,19.04
2022-08-30T17:49:28.832Z,19.21
2022-08-30T17:51:57.995Z,19.04
2022-08-30T17:54:28.131Z,18.94
2022-08-30T17:56:57.441Z,18.89
2022-08-30T17:59:26.460Z,18.87
2022-08-30T18:01:57.441Z,18.79
2022-08-30T18:04:26.955Z,18.76
2022-08-30T18:06:56.175Z,18.78
2022-08-30T18:09:24.585Z,18.74
2022-08-30T18:11:56.303Z,18.70
2022-08-30T18:14:25.222Z,18.74
2022-08-30T18:16:54.873Z,18.79
2022-08-30T18:19:24.316Z,18.76
2022-08-30T18:21:52.706Z,18.69
2022-08-30T18:24:21.990Z,18.68
2022-08-30T18:26:50.422Z,18.88
2022-08-30T18:29:26.052Z,18.75
2022-08-30T18:32:03.432Z,18.72
2022-08-30T18:34:31.778Z,18.64
2022-08-30T18:37:01.127Z,18.59
2022-08-30T18:42:17.636Z,18.75
2022-08-30T18:44:45.706Z,18.55
2022-08-30T18:47:13.579Z,18.74
2022-08-30T18:49:42.694Z,18.63
2022-08-30T18:52:11.481Z,18.50
2022-08-30T18:54:51.701Z,18.41
2022-08-30T18:57:22.143Z,18.36
2022-08-30T18:59:50.360Z,18.35
2022-08-30T19:02:19.052Z,18.36
2022-08-30T19:04:49.219Z,18.28
2022-08-30T19:07:19.524Z,18.36
2022-08-30T19:09:47.465Z,18.24
2022-08-30T19:12:16.210Z,18.23
2022-08-30T19:14:43.972Z,18.23
2022-08-30T19:17:12.633Z,18.25
2022-08-30T19:19:47.235Z,18.40
2022-08-30T19:22:19.048Z,18.28
2022-08-30T19:24:49.733Z,18.20
2022-08-30T19:30:29.931Z,18.26
2022-08-30T19:32:57.886Z,18.26
2022-08-30T19:35:26.619Z,18.25
2022-08-30T19:37:59.508Z,18.04
2022-08-30T19:40:28.209Z,17.98
2022-08-30T19:42:56.767Z,17.92
2022-08-30T19:45:25.268Z,17.85
2022-08-30T19:47:53.681Z,17.85
2022-08-30T19:50:22.170Z,17.88
2022-08-30T19:52:54.144Z,17.91
2022-08-30T19:55:30.166Z,17.81
2022-08-30T19:57:59.321Z,17.74
2022-08-30T20:00:27.304Z,17.77
2022-08-30T20:03:01.450Z,17.72
2022-08-30T20:05:31.834Z,17.76
2022-08-30T20:08:00.644Z,17.69
2022-08-30T20:10:28.548Z,17.71
2022-08-30T20:12:56.807Z,17.62
2022-08-30T20:15:25.766Z,17.61
2022-08-30T20:18:05.097Z,17.57
2022-08-30T20:20:33.740Z,17.64
2022-08-30T20:23:05.584Z,17.62
2022-08-30T20:24:28.313Z,18.64
2022-08-30T20:25:34.447Z,17.62
2022-08-30T20:28:03.369Z,17.56
2022-08-30T20:30:32.306Z,17.51
2022-08-30T20:33:03.712Z,17.53
2022-08-30T20:35:34.280Z,17.48
2022-08-30T20:38:06.482Z,17.72
2022-08-30T20:40:37.112Z,17.58
2022-08-30T20:43:06.349Z,17.58
2022-08-30T20:45:34.685Z,17.60
2022-08-30T20:48:03.261Z,17.55
2022-08-30T20:50:31.505Z,17.52
2022-08-30T20:52:59.439Z,17.53
2022-08-30T20:55:27.203Z,17.51
2022-08-30T20:57:55.116Z,17.52
2022-08-30T21:00:23.864Z,17.54
2022-08-30T21:02:54.619Z,17.50
2022-08-30T21:05:22.745Z,17.50
2022-08-30T21:07:50.550Z,17.44
2022-08-30T21:10:22.712Z,17.40
2022-08-30T21:12:51.703Z,17.38
2022-08-30T21:15:37.610Z,17.43
2022-08-30T21:18:06.552Z,17.40
2022-08-30T21:20:34.368Z,17.48
2022-08-30T21:23:02.373Z,17.49
2022-08-30T21:25:33.274Z,17.41
2022-08-30T21:28:01.374Z,17.46
2022-08-30T21:30:29.312Z,17.39
2022-08-30T21:33:00.102Z,17.39
2022-08-30T21:35:47.396Z,17.35
2022-08-30T21:38:16.582Z,17.39
2022-08-30T21:40:44.692Z,17.30
2022-08-30T21:43:12.757Z,17.32
2022-08-30T21:45:41.765Z,17.41
2022-08-30T21:48:11.584Z,17.35
2022-08-30T21:50:42.290Z,17.44
2022-08-30T21:53:10.810Z,17.36
2022-08-30T21:55:40.311Z,17.34
2022-08-30T21:58:11.813Z,17.33
2022-08-30T22:00:39.616Z,17.39
2022-08-30T22:03:07.375Z,17.50
2022-08-30T22:05:35.541Z,17.60
2022-08-30T22:08:03.504Z,17.56
2022-08-30T22:10:33.258Z,17.70
2022-08-30T22:13:01.613Z,17.50
2022-08-30T22:15:31.561Z,17.32
2022-08-30T22:18:00.950Z,17.21
2022-08-30T22:20:30.321Z,17.20
2022-08-30T22:22:58.602Z,17.39
2022-08-30T22:25:26.671Z,17.28
2022-08-30T22:27:54.625Z,17.15
2022-08-30T22:30:22.603Z,17.15
2022-08-30T22:32:51.479Z,17.06
2022-08-30T22:35:20.687Z,17.03
2022-08-30T22:37:53.493Z,16.95
2022-08-30T22:40:22.259Z,16.95
2022-08-30T22:42:50.063Z,16.96
2022-08-30T22:45:18.134Z,16.97
2022-08-30T22:47:46.275Z,17.19
2022-08-30T22:50:14.387Z,17.24
2022-08-30T22:52:42.214Z,17.22
2022-08-30T22:55:10.143Z,17.33
2022-08-30T22:57:39.138Z,17.19
2022-08-30T23:00:15.190Z,16.96
2022-08-30T23:02:47.036Z,16.94
2022-08-30T23:05:16.215Z,16.83
2022-08-30T23:07:44.506Z,16.84
2022-08-30T23:10:14.423Z,16.89
2022-08-30T23:12:43.075Z,16.77
2022-08-30T23:15:14.940Z,16.73
2022-08-30T23:17:42.879Z,16.51
2022-08-30T23:20:10.975Z,16.49
2022-08-30T23:22:38.919Z,16.38
2022-08-30T23:25:26.555Z,16.20
2022-08-30T23:28:19.100Z,16.05
2022-08-30T23:31:07.084Z,15.93
2022-08-30T23:33:53.692Z,15.81
2022-08-30T23:36:40.131Z,15.78
2022-08-30T23:39:26.793Z,15.58
2022-08-30T23:42:13.415Z,15.54
2022-08-30T23:45:00.220Z,15.43
2022-08-30T23:47:46.574Z,15.44
2022-08-30T23:50:33.021Z,15.36
2022-08-30T23:53:19.666Z,15.36
2022-08-30T23:56:06.568Z,15.24
2022-08-30T23:58:54.254Z,15.15
